Time;durP1;ratioP1;P1;durP2;ratioP2;P2;SDS_P1;SDS_P2;PMS_P1;PMS_P2;Temp;Humidity;BMP_temperature;BMP_pressure;BME280_temperature;BME280_humidity;BME280_pressure;Samples;Min_cycle;Max_cycle;Signal;HPM_P1;HPM_P2
2022/05/07 00:01:39;;;;;;;;;6.75;6.75;;;;;16.39;55.36;102221.75;5073854;28;49700;-73
2022/05/07 00:04:04;;;;;;;;;7.00;7.00;;;;;15.55;55.69;102099.03;5073657;28;49543;-72
2022/05/07 00:06:30;;;;;;;;;7.00;6.00;;;;;16.82;55.54;102280.13;5073393;27;50442;-74
2022/05/07 00:08:55;;;;;;;;;7.00;7.00;;;;;16.71;55.76;102265.75;5073003;28;49819;-73
2022/05/07 00:11:21;;;;;;;;;6.25;6.25;;;;;16.81;55.38;102290.69;5073512;27;49814;-71
2022/05/07 00:13:48;;;;;;;;;8.50;8.50;;;;;16.83;55.67;102297.81;5073642;28;49968;-72
2022/05/07 00:18:57;;;;;;;;;9.00;9.00;;;;;16.58;55.83;102269.88;5067120;28;49679;-72
2022/05/07 00:21:23;;;;;;;;;10.50;9.50;;;;;16.59;56.03;102273.41;5062680;27;49734;-72
2022/05/07 00:23:48;;;;;;;;;8.75;6.75;;;;;16.56;56.45;102278.66;5073464;27;49945;-72
2022/05/07 00:26:13;;;;;;;;;11.00;8.00;;;;;16.43;56.30;102261.63;5072831;27;51038;-71
2022/05/07 00:28:39;;;;;;;;;9.50;9.50;;;;;16.49;56.23;102269.69;5073146;27;49862;-71
2022/05/07 00:31:05;;;;;;;;;9.75;9.75;;;;;16.53;56.72;102275.97;5073182;27;50014;-71
2022/05/07 00:33:31;;;;;;;;;7.50;7.25;;;;;16.52;56.92;102275.06;5073381;28;50109;-74
2022/05/07 00:35:56;;;;;;;;;6.00;6.00;;;;;16.33;56.90;102250.81;5072974;28;50625;-75
2022/05/07 00:38:21;;;;;;;;;12.75;10.50;;;;;16.49;56.98;102287.34;5072925;28;49802;-73
2022/05/07 00:40:46;;;;;;;;;11.50;10.75;;;;;16.05;57.17;102251.97;5072912;28;49960;-72
2022/05/07 00:43:15;;;;;;;;;12.25;12.25;;;;;16.10;57.29;102260.91;5072889;27;50077;-73
2022/05/07 00:45:42;;;;;;;;;10.25;10.25;;;;;16.15;58.08;102302.53;5071454;28;51627;-75
2022/05/07 00:48:08;;;;;;;;;11.75;9.00;;;;;15.70;57.90;102212.34;5073052;28;49973;-74
2022/05/07 00:53:17;;;;;;;;;10.25;9.75;;;;;15.91;58.55;102249.88;5073196;28;49747;-73
2022/05/07 00:55:44;;;;;;;;;16.00;13.50;;;;;15.79;58.45;102235.47;5072382;28;50121;-72
2022/05/07 00:58:09;;;;;;;;;12.25;9.25;;;;;15.50;58.79;102193.31;5072840;28;49846;-73
2022/05/07 01:00:35;;;;;;;;;9.00;9.00;;;;;15.97;59.08;102279.16;5072697;28;49997;-72
2022/05/07 01:03:00;;;;;;;;;9.25;9.25;;;;;15.90;59.18;102258.69;5072811;28;49717;-72
2022/05/07 01:05:26;;;;;;;;;9.00;9.00;;;;;15.93;59.44;102260.53;5072467;27;50685;-73
2022/05/07 01:07:51;;;;;;;;;10.00;10.00;;;;;15.84;59.39;102247.09;5072598;27;49680;-72
2022/05/07 01:10:18;;;;;;;;;12.00;11.75;;;;;15.72;59.70;102237.97;5072077;28;50106;-73
2022/05/07 01:12:44;;;;;;;;;9.00;7.25;;;;;15.65;59.79;102227.25;5072984;28;49178;-73
2022/05/07 01:15:10;;;;;;;;;12.00;11.00;;;;;15.70;59.66;102241.47;5072325;28;50742;-73
2022/05/07 01:17:35;;;;;;;;;13.25;11.00;;;;;15.80;60.13;102262.00;5072219;28;49804;-72
2022/05/07 01:20:01;;;;;;;;;11.25;11.25;;;;;15.80;59.72;102266.41;5072245;28;50169;-74
2022/05/07 01:22:29;;;;;;;;;9.75;9.75;;;;;15.85;59.94;102270.06;5078426;27;49604;-72
2022/05/07 01:24:54;;;;;;;;;15.50;13.75;;;;;15.47;59.98;102201.19;5071929;27;50901;-74
2022/05/07 01:27:20;;;;;;;;;15.25;11.25;;;;;15.67;60.04;102244.03;5072379;28;49695;-72
2022/05/07 01:29:46;;;;;;;;;14.25;9.50;;;;;15.58;60.75;102231.44;5072417;27;49725;-72
2022/05/07 01:32:11;;;;;;;;;12.00;11.00;;;;;15.39;60.66;102197.47;5072396;27;50158;-73
2022/05/07 01:34:37;;;;;;;;;10.00;10.00;;;;;15.74;60.52;102251.28;5071869;27;49816;-73
2022/05/07 01:37:03;;;;;;;;;15.00;12.25;;;;;15.37;60.58;102201.84;5072167;27;49819;-72
2022/05/07 01:39:28;;;;;;;;;16.25;14.25;;;;;15.73;60.75;102262.72;5070657;28;49758;-72
2022/05/07 01:41:53;;;;;;;;;10.25;10.25;;;;;15.67;61.22;102252.88;5070648;28;49844;-72
2022/05/07 01:44:19;;;;;;;;;15.00;14.00;;;;;15.56;60.92;102238.47;5072017;27;51317;-72
2022/05/07 01:49:28;;;;;;;;;11.00;11.00;;;;;15.39;60.69;102208.94;5065868;28;50066;-72
2022/05/07 01:51:53;;;;;;;;;14.00;11.75;;;;;15.50;61.32;102233.00;5072263;27;49524;-72
2022/05/07 01:54:18;;;;;;;;;13.25;13.00;;;;;15.61;61.19;102249.19;5071150;28;50621;-72
2022/05/07 01:56:44;;;;;;;;;17.50;13.00;;;;;15.15;61.35;102174.88;5071697;28;49787;-76
2022/05/07 01:59:09;;;;;;;;;14.75;13.25;;;;;15.64;60.99;102266.06;5071563;28;50294;-76
2022/05/07 02:01:35;;;;;;;;;12.00;12.00;;;;;15.21;61.49;102204.94;5071974;28;49641;-72
2022/05/07 02:04:00;;;;;;;;;11.00;10.50;;;;;15.30;62.12;102221.06;5071652;27;49752;-72
2022/05/07 02:06:26;;;;;;;;;19.50;15.00;;;;;15.29;62.28;102217.50;5071554;28;49714;-72
2022/05/07 02:08:51;;;;;;;;;8.00;8.00;;;;;15.07;62.11;102186.09;5071582;27;49694;-72
2022/05/07 02:11:16;;;;;;;;;18.00;15.25;;;;;15.18;62.15;102196.09;5071649;28;49728;-72
2022/05/07 02:13:42;;;;;;;;;14.75;13.25;;;;;15.52;61.95;102267.44;5071367;28;49876;-72
2022/05/07 02:16:07;;;;;;;;;17.75;15.75;;;;;15.20;62.27;102217.28;5071243;28;49776;-71
2022/05/07 02:18:33;;;;;;;;;13.25;12.00;;;;;15.41;62.63;102249.56;5071587;27;49973;-71
2022/05/07 02:20:58;;;;;;;;;14.25;12.25;;;;;15.23;62.51;102220.00;5072692;27;50038;-71
2022/05/07 02:23:23;;;;;;;;;13.75;13.75;;;;;15.27;63.06;102226.28;5075565;27;49711;-71
2022/05/07 02:25:49;;;;;;;;;12.50;9.25;;;;;15.42;62.50;102251.34;5071196;28;49801;-72
2022/05/07 02:28:14;;;;;;;;;12.75;12.00;;;;;15.04;62.53;102194.84;5071551;28;49932;-71
2022/05/07 02:30:40;;;;;;;;;13.50;11.75;;;;;14.86;63.23;102171.50;5071160;28;50033;-72
2022/05/07 02:33:06;;;;;;;;;12.25;9.75;;;;;14.79;63.24;102169.53;5070944;28;50982;-72
2022/05/07 02:35:31;;;;;;;;;17.50;13.50;;;;;15.25;63.44;102246.47;5071230;28;49584;-74
2022/05/07 02:37:58;;;;;;;;;15.00;13.50;;;;;15.11;63.57;102230.28;5071251;28;49839;-72
2022/05/07 02:40:23;;;;;;;;;14.00;13.00;;;;;15.23;63.41;102279.94;5064597;28;49738;-72
2022/05/07 02:42:49;;;;;;;;;17.25;15.75;;;;;15.08;63.72;102243.44;5070779;28;52787;-72
2022/05/07 02:45:14;;;;;;;;;15.75;12.00;;;;;15.16;64.34;102261.28;5071024;27;50452;-72
2022/05/07 02:47:41;;;;;;;;;15.50;13.50;;;;;14.64;64.37;102178.81;5071096;28;49905;-72
2022/05/07 02:50:08;;;;;;;;;13.25;13.25;;;;;14.53;64.18;102178.50;5070705;28;49715;-73
2022/05/07 02:52:36;;;;;;;;;15.00;12.75;;;;;14.92;64.60;102235.94;5074858;27;49746;-73
2022/05/07 02:55:04;;;;;;;;;15.00;14.00;;;;;14.70;64.75;102221.25;5085569;27;49673;-72
2022/05/07 02:57:30;;;;;;;;;13.50;13.50;;;;;14.75;65.40;102215.22;5071189;27;50001;-72
2022/05/07 02:59:56;;;;;;;;;16.75;14.50;;;;;14.98;65.42;102265.22;5071012;28;49523;-71
2022/05/07 03:02:21;;;;;;;;;15.50;14.75;;;;;14.91;65.87;102247.38;5083965;27;50625;-73
2022/05/07 03:04:49;;;;;;;;;16.75;13.00;;;;;14.72;66.43;102230.13;5070829;27;49660;-72
2022/05/07 03:07:15;;;;;;;;;15.00;14.00;;;;;14.44;66.21;102178.22;5068406;28;49809;-73
2022/05/07 03:09:40;;;;;;;;;17.50;16.00;;;;;14.72;66.56;102220.44;5068809;28;49697;-72
2022/05/07 03:12:06;;;;;;;;;12.25;12.25;;;;;14.50;66.02;102195.19;5070359;28;49829;-71
2022/05/07 03:14:32;;;;;;;;;16.75;16.50;;;;;14.89;66.79;102260.56;5070543;27;49775;-75
2022/05/07 03:16:58;;;;;;;;;8.50;7.75;;;;;14.79;66.97;102251.50;5074613;27;49797;-73
2022/05/07 03:19:23;;;;;;;;;16.25;15.25;;;;;14.66;66.74;102227.31;5070434;28;49770;-72
2022/05/07 03:21:48;;;;;;;;;16.25;13.75;;;;;14.36;66.80;102178.00;5070275;28;49728;-73
2022/05/07 03:24:14;;;;;;;;;15.75;15.75;;;;;14.11;66.74;102176.44;5070431;28;49849;-72
2022/05/07 03:26:39;;;;;;;;;14.75;13.50;;;;;14.18;66.94;102151.06;5070358;28;49807;-73
2022/05/07 03:29:05;;;;;;;;;13.50;11.75;;;;;14.78;67.09;102252.34;5073224;27;50740;-72
2022/05/07 03:31:30;;;;;;;;;16.25;14.00;;;;;14.73;66.99;102235.44;5070691;28;50644;-73
2022/05/07 03:33:56;;;;;;;;;17.25;16.75;;;;;14.68;67.11;102217.69;5070169;28;49695;-73
2022/05/07 03:36:21;;;;;;;;;11.50;10.00;;;;;14.57;67.24;102201.50;5068574;27;49962;-72
2022/05/07 03:38:47;;;;;;;;;15.00;13.00;;;;;14.30;66.91;102154.97;5070264;28;49966;-73
2022/05/07 03:41:14;;;;;;;;;15.50;15.25;;;;;14.68;67.00;102222.97;5070046;28;50524;-72
2022/05/07 03:43:40;;;;;;;;;14.75;13.75;;;;;14.67;67.06;102222.09;5070576;27;49694;-76
2022/05/07 03:46:05;;;;;;;;;17.00;14.25;;;;;14.61;67.33;102211.34;5070059;27;49810;-73
2022/05/07 03:48:31;;;;;;;;;18.00;13.25;;;;;14.32;67.51;102161.19;5070333;28;49825;-74
2022/05/07 03:50:57;;;;;;;;;13.00;13.00;;;;;14.80;67.35;102248.00;5069909;28;52035;-72
2022/05/07 03:53:32;;;;;;;;;13.00;12.00;;;;;14.55;67.57;102212.06;5069940;28;49803;-72
2022/05/07 03:55:58;;;;;;;;;14.00;14.00;;;;;14.76;67.68;102238.16;5069976;27;49745;-73
2022/05/07 03:58:25;;;;;;;;;20.50;17.00;;;;;14.55;68.24;102206.75;5075982;27;49561;-75
2022/05/07 04:00:52;;;;;;;;;18.25;14.25;;;;;14.51;68.09;102211.94;5071931;27;49837;-77
2022/05/07 04:03:18;;;;;;;;;20.00;18.50;;;;;14.50;68.52;102205.75;5071781;27;49929;-73
2022/05/07 04:05:46;;;;;;;;;16.25;15.25;;;;;14.70;68.43;102260.91;5069923;27;49733;-72
2022/05/07 04:08:12;;;;;;;;;17.25;15.75;;;;;13.91;69.02;102115.16;5069060;28;50031;-73
2022/05/07 04:10:37;;;;;;;;;18.50;14.50;;;;;14.64;69.06;102240.47;5069429;28;50138;-73
2022/05/07 04:13:03;;;;;;;;;20.25;17.25;;;;;14.53;69.34;102231.38;5068455;28;49797;-73
2022/05/07 04:15:28;;;;;;;;;14.75;14.50;;;;;13.92;69.47;102124.84;5069801;28;50186;-72
2022/05/07 04:17:53;;;;;;;;;20.25;17.50;;;;;14.06;69.92;102172.75;5069793;28;49970;-73
2022/05/07 04:20:19;;;;;;;;;13.50;13.50;;;;;14.50;69.80;102242.75;5069743;28;51021;-73
2022/05/07 04:22:45;;;;;;;;;16.25;14.75;;;;;14.48;70.76;102243.56;5069565;28;49647;-73
2022/05/07 04:25:11;;;;;;;;;21.25;18.00;;;;;14.33;70.31;102228.13;5071234;27;49881;-73
2022/05/07 04:27:36;;;;;;;;;20.50;19.25;;;;;14.39;71.13;102233.59;5077161;27;50024;-72
2022/05/07 04:30:03;;;;;;;;;18.75;17.00;;;;;14.39;70.99;102245.91;5069354;28;50785;-73
2022/05/07 04:32:28;;;;;;;;;15.25;13.00;;;;;14.38;71.21;102246.72;5069666;27;49660;-74
2022/05/07 04:34:57;;;;;;;;;17.50;17.50;;;;;13.91;71.44;102173.22;5068172;28;49664;-73
2022/05/07 04:37:24;;;;;;;;;24.00;20.50;;;;;14.22;71.17;102219.91;5068242;28;49881;-73
2022/05/07 04:39:49;;;;;;;;;22.25;19.50;;;;;13.89;71.39;102161.69;5068802;28;49821;-74
2022/05/07 04:42:15;;;;;;;;;21.75;19.50;;;;;14.08;71.11;102186.00;5069466;28;49906;-73
2022/05/07 04:44:40;;;;;;;;;21.25;19.50;;;;;14.27;71.40;102218.25;5071854;27;49735;-74
2022/05/07 04:47:06;;;;;;;;;15.25;14.75;;;;;13.71;70.87;102117.22;5076367;27;49785;-73
2022/05/07 04:49:32;;;;;;;;;17.50;17.50;;;;;14.34;71.47;102232.56;5072605;28;50162;-73
2022/05/07 04:51:58;;;;;;;;;24.00;20.50;;;;;14.45;71.05;102236.44;5072806;28;49727;-76
2022/05/07 04:54:25;;;;;;;;;21.50;20.50;;;;;14.27;71.17;102193.59;5072437;28;49932;-72
2022/05/07 04:56:52;;;;;;;;;21.00;17.00;;;;;14.04;71.26;102148.94;5072723;28;50078;-72
2022/05/07 04:59:19;;;;;;;;;19.25;18.00;;;;;14.46;70.99;102213.53;5071603;27;51149;-72
2022/05/07 05:01:45;;;;;;;;;21.50;16.25;;;;;14.47;70.79;102216.22;5076649;27;49870;-73
2022/05/07 05:04:11;;;;;;;;;21.50;17.50;;;;;14.26;70.46;102178.59;5072679;28;49812;-72
2022/05/07 05:06:37;;;;;;;;;29.25;24.25;;;;;14.31;70.94;102184.94;5072893;28;49582;-73
2022/05/07 05:09:04;;;;;;;;;23.75;19.50;;;;;14.56;70.99;102239.38;5076241;27;49622;-71
2022/05/07 05:11:30;;;;;;;;;23.50;20.00;;;;;14.43;71.12;102209.03;5072177;28;49978;-73
2022/05/07 05:13:55;;;;;;;;;17.50;16.25;;;;;14.11;71.07;102162.34;5070772;28;49802;-74
2022/05/07 05:16:21;;;;;;;;;19.00;18.50;;;;;14.39;70.87;102198.34;5072405;27;49906;-71
2022/05/07 05:18:47;;;;;;;;;17.00;16.00;;;;;14.69;71.01;102237.97;5074924;27;49936;-72
2022/05/07 05:21:12;;;;;;;;;15.25;15.25;;;;;14.12;71.10;102114.84;5072387;27;49886;-73
2022/05/07 05:23:37;;;;;;;;;19.00;17.25;;;;;14.53;70.36;102189.97;5074964;27;49976;-72
2022/05/07 05:26:03;;;;;;;;;19.50;17.75;;;;;14.02;70.82;102092.56;5072644;28;49581;-76
2022/05/07 05:28:28;;;;;;;;;20.25;18.50;;;;;14.83;70.09;102220.72;5072059;27;49690;-76
2022/05/07 05:30:55;;;;;;;;;17.00;17.00;;;;;14.64;70.34;102179.69;5075242;27;49779;-72
2022/05/07 05:33:21;;;;;;;;;18.75;17.25;;;;;15.04;70.09;102237.16;5072209;27;49689;-74
2022/05/07 05:35:46;;;;;;;;;26.25;18.50;;;;;14.83;70.35;102211.03;5073547;27;49792;-72
2022/05/07 05:38:12;;;;;;;;;22.00;19.75;;;;;14.87;69.75;102201.47;5072432;27;50681;-74
2022/05/07 05:40:37;;;;;;;;;21.50;17.50;;;;;14.87;69.75;102202.34;5072492;28;50047;-74
2022/05/07 05:43:03;;;;;;;;;17.75;15.25;;;;;15.08;69.77;102227.56;5072047;27;49933;-72
2022/05/07 05:45:28;;;;;;;;;18.25;16.50;;;;;15.01;69.41;102228.25;5072252;28;49828;-73
2022/05/07 05:47:54;;;;;;;;;24.50;22.25;;;;;15.17;69.67;102254.25;5073909;27;50873;-73
2022/05/07 05:50:20;;;;;;;;;21.75;18.25;;;;;15.11;70.03;102236.47;5073742;27;50440;-73
2022/05/07 05:52:45;;;;;;;;;23.50;21.25;;;;;15.19;69.57;102239.31;5072607;27;49804;-73
2022/05/07 05:55:11;;;;;;;;;23.50;20.25;;;;;14.91;69.81;102179.53;5071240;28;49954;-73
2022/05/07 05:57:36;;;;;;;;;20.25;18.75;;;;;14.66;69.31;102122.47;5071508;27;50088;-73
2022/05/07 06:00:09;;;;;;;;;19.25;18.50;;;;;15.47;69.35;102254.13;5072722;27;49893;-74
2022/05/07 06:02:34;;;;;;;;;23.75;21.75;;;;;15.37;69.22;102213.31;5077312;27;49888;-74
2022/05/07 06:05:00;;;;;;;;;17.75;17.25;;;;;15.61;68.87;102242.13;5071727;28;49930;-73
2022/05/07 06:07:25;;;;;;;;;25.00;18.75;;;;;15.04;68.72;102131.38;5071524;28;49971;-72
2022/05/07 06:09:50;;;;;;;;;19.75;19.25;;;;;15.52;68.25;102204.81;5070989;27;50076;-72
2022/05/07 06:12:16;;;;;;;;;22.50;20.75;;;;;15.49;68.84;102215.34;5074364;27;49663;-73
2022/05/07 06:14:41;;;;;;;;;20.00;19.50;;;;;15.36;68.50;102193.00;5072095;28;50029;-73
2022/05/07 06:17:07;;;;;;;;;18.00;16.75;;;;;15.50;68.30;102216.25;5071360;28;50962;-73
2022/05/07 06:19:32;;;;;;;;;19.50;17.00;;;;;15.72;68.37;102255.63;5076148;27;50006;-74
2022/05/07 06:21:57;;;;;;;;;27.75;22.50;;;;;15.22;68.44;102173.25;5070105;28;49883;-72
2022/05/07 06:29:51;;;;;;;;;22.50;21.50;;;;;15.28;68.89;102228.97;5075144;27;49863;-72
2022/05/07 06:32:18;;;;;;;;;22.25;21.25;;;;;15.40;68.41;102258.34;5071868;27;49997;-72
2022/05/07 06:34:43;;;;;;;;;15.75;15.00;;;;;15.62;68.66;102280.97;5071649;27;49949;-73
2022/05/07 06:37:09;;;;;;;;;24.75;24.25;;;;;15.63;68.76;102274.84;5070788;28;50062;-72
2022/05/07 06:39:34;;;;;;;;;27.75;23.75;;;;;15.69;68.52;102289.97;5070146;27;49907;-72
2022/05/07 06:41:59;;;;;;;;;32.25;23.75;;;;;15.45;68.57;102253.19;5071816;27;49825;-72
2022/05/07 06:44:25;;;;;;;;;20.50;19.00;;;;;15.48;68.38;102247.97;5070733;28;49570;-72
2022/05/07 06:46:50;;;;;;;;;21.50;21.00;;;;;15.88;68.45;102312.50;5073006;27;50057;-73
2022/05/07 06:49:17;;;;;;;;;26.00;23.00;;;;;15.52;68.45;102249.81;5071903;27;49966;-72
2022/05/07 06:51:43;;;;;;;;;24.50;24.00;;;;;15.38;68.41;102215.09;5070989;27;49598;-72
2022/05/07 06:54:08;;;;;;;;;21.50;18.25;;;;;15.80;68.71;102299.06;5069777;28;49756;-72
2022/05/07 06:56:34;;;;;;;;;24.00;20.25;;;;;15.39;68.76;102194.81;5072493;27;50695;-72
2022/05/07 06:59:00;;;;;;;;;25.50;22.00;;;;;15.93;68.14;102252.59;5070559;28;49848;-72
2022/05/07 07:01:25;;;;;;;;;21.50;21.50;;;;;16.02;67.83;102237.81;5078159;27;49925;-72
2022/05/07 07:03:51;;;;;;;;;21.75;20.50;;;;;16.14;67.29;102228.31;5070728;28;49899;-72
2022/05/07 07:06:17;;;;;;;;;23.75;20.75;;;;;16.17;66.74;102207.19;5074575;27;49751;-72
2022/05/07 07:08:43;;;;;;;;;24.75;22.25;;;;;16.58;66.85;102253.06;5070427;27;49805;-76
2022/05/07 07:11:08;;;;;;;;;24.00;20.00;;;;;16.55;66.18;102245.06;5071006;28;49901;-75
2022/05/07 07:13:33;;;;;;;;;20.25;19.25;;;;;16.21;66.01;102185.19;5075140;27;50075;-76
2022/05/07 07:15:59;;;;;;;;;23.25;20.75;;;;;16.70;66.25;102266.63;5070232;27;49751;-75
2022/05/07 07:18:24;;;;;;;;;22.75;21.50;;;;;16.72;66.71;102270.19;5069289;28;49917;-75
2022/05/07 07:20:49;;;;;;;;;28.50;23.25;;;;;16.62;66.06;102254.94;5070572;28;49704;-72
2022/05/07 07:23:16;;;;;;;;;17.50;17.00;;;;;16.93;66.10;102279.44;5070931;27;49584;-67
2022/05/07 07:25:42;;;;;;;;;17.50;15.75;;;;;16.93;65.74;102267.06;5073219;27;51863;-70
2022/05/07 07:28:08;;;;;;;;;17.75;16.00;;;;;16.36;65.25;102156.34;5070187;28;49910;-71
2022/05/07 07:30:34;;;;;;;;;20.50;20.00;;;;;17.12;65.56;102271.84;5075810;27;49752;-69
2022/05/07 07:33:00;;;;;;;;;24.00;20.25;;;;;17.26;64.93;102277.38;5070733;28;49694;-72
2022/05/07 07:35:26;;;;;;;;;22.50;20.00;;;;;17.21;64.87;102276.41;5069783;27;52842;-68
2022/05/07 07:37:51;;;;;;;;;24.75;21.75;;;;;17.13;64.87;102252.38;5070130;28;49740;-69
2022/05/07 07:40:16;;;;;;;;;19.25;18.50;;;;;17.27;64.87;102259.69;5070973;27;50080;-68
2022/05/07 07:42:42;;;;;;;;;25.50;20.50;;;;;17.60;63.96;102285.91;5070598;27;49594;-70
2022/05/07 07:47:57;;;;;;;;;19.75;18.50;;;;;17.78;63.44;102280.03;5070353;28;49752;-69
2022/05/07 07:50:23;;;;;;;;;21.75;20.75;;;;;17.68;63.25;102250.66;5077354;27;49660;-72
2022/05/07 07:52:55;;;;;;;;;17.25;15.50;;;;;17.86;63.38;102273.09;5071665;27;49875;-71
2022/05/07 07:55:22;;;;;;;;;21.00;18.50;;;;;17.89;62.73;102273.13;5069529;28;49736;-72
2022/05/07 07:57:55;;;;;;;;;19.25;18.50;;;;;17.76;63.25;102263.16;5070037;28;50084;-71
2022/05/07 08:00:20;;;;;;;;;21.75;18.75;;;;;17.78;62.78;102267.66;5070035;28;49711;-71
2022/05/07 08:02:50;;;;;;;;;18.75;18.75;;;;;17.60;63.11;102249.63;5070319;28;49758;-72
2022/05/07 08:05:17;;;;;;;;;19.00;18.25;;;;;17.72;63.25;102249.84;5077270;27;50914;-71
2022/05/07 08:13:11;;;;;;;;;17.75;15.75;;;;;17.95;62.28;102222.69;5072891;27;49912;-72
2022/05/07 08:15:36;;;;;;;;;15.50;15.00;;;;;18.35;62.23;102250.72;5071387;27;50693;-71
2022/05/07 08:18:02;;;;;;;;;21.00;19.75;;;;;18.43;60.89;102246.41;5069815;27;49897;-69
2022/05/07 08:20:27;;;;;;;;;22.00;17.25;;;;;18.23;61.14;102216.88;5072627;28;49728;-69
2022/05/07 08:22:52;;;;;;;;;21.75;16.50;;;;;18.24;61.23;102207.16;5073733;27;49653;-69
2022/05/07 08:25:18;;;;;;;;;18.00;15.75;;;;;18.48;60.61;102246.44;5077598;27;52948;-70
2022/05/07 08:27:43;;;;;;;;;17.75;17.25;;;;;18.62;60.90;102244.81;5075328;27;49811;-68
2022/05/07 08:30:09;;;;;;;;;16.25;16.25;;;;;18.56;59.71;102235.00;5073267;28;49954;-66
2022/05/07 08:32:34;;;;;;;;;17.25;16.00;;;;;18.70;60.10;102236.97;5079372;27;50118;-67
2022/05/07 08:34:59;;;;;;;;;17.00;17.00;;;;;18.61;59.97;102229.72;5073164;28;50105;-72
2022/05/07 08:37:25;;;;;;;;;17.25;16.75;;;;;19.00;59.93;102263.88;5078828;27;49788;-67
2022/05/07 08:39:50;;;;;;;;;15.50;14.25;;;;;19.07;59.29;102255.09;5075608;27;49777;-69
2022/05/07 08:42:15;;;;;;;;;24.00;16.00;;;;;19.05;59.89;102247.97;5082081;27;49787;-70
2022/05/07 08:44:41;;;;;;;;;16.50;15.00;;;;;19.33;59.45;102255.31;5072911;27;50421;-69
2022/05/07 08:47:06;;;;;;;;;14.50;14.50;;;;;19.36;58.63;102233.16;5072993;27;49710;-69
2022/05/07 08:49:32;;;;;;;;;14.50;11.75;;;;;19.29;58.37;102224.19;5072836;28;49810;-70
2022/05/07 08:52:00;;;;;;;;;19.25;16.25;;;;;19.47;58.19;102266.06;5078737;27;49873;-69
2022/05/07 08:54:26;;;;;;;;;13.25;11.25;;;;;19.24;58.07;102230.38;5077338;27;50922;-70
2022/05/07 08:56:51;;;;;;;;;10.50;9.75;;;;;19.26;58.88;102247.25;5074749;27;49939;-69
2022/05/07 08:59:17;;;;;;;;;17.00;15.75;;;;;19.23;58.61;102253.47;5074942;27;49678;-69
2022/05/07 09:01:43;;;;;;;;;12.25;11.50;;;;;19.03;59.09;102253.28;5076752;27;49708;-70
2022/05/07 09:04:09;;;;;;;;;9.75;9.50;;;;;18.83;58.95;102233.56;5076113;27;50581;-75
2022/05/07 09:06:35;;;;;;;;;16.75;15.75;;;;;18.86;59.31;102249.56;5074902;27;50016;-71
2022/05/07 09:09:05;;;;;;;;;10.25;9.75;;;;;18.79;59.49;102261.00;5072356;27;49589;-69
2022/05/07 09:11:42;;;;;;;;;13.00;12.50;;;;;18.81;59.99;102252.16;5073485;27;49807;-70
2022/05/07 09:14:07;;;;;;;;;14.25;10.25;;;;;18.83;59.97;102230.91;5074622;27;50878;-74
2022/05/07 09:16:41;;;;;;;;;15.50;14.50;;;;;19.11;59.78;102258.69;5071914;27;49741;-65
2022/05/07 09:19:21;;;;;;;;;15.25;14.00;;;;;19.19;59.52;102240.97;5073111;27;49782;-67
2022/05/07 09:21:47;;;;;;;;;12.25;11.00;;;;;19.27;58.69;102238.41;5079166;27;49723;-65
2022/05/07 09:24:13;;;;;;;;;14.25;14.25;;;;;19.44;58.79;102245.66;5075281;27;49676;-65
2022/05/07 09:26:40;;;;;;;;;12.00;11.00;;;;;19.44;58.52;102223.44;5071174;27;49996;-65
2022/05/07 09:29:11;;;;;;;;;12.50;11.50;;;;;19.62;57.15;102234.28;5071283;28;50201;-65
2022/05/07 09:31:37;;;;;;;;;11.50;11.50;;;;;19.49;57.68;102208.38;5072254;28;49623;-64
2022/05/07 09:36:55;;;;;;;;;15.00;11.50;;;;;19.74;57.06;102244.13;5068148;28;49756;-64
2022/05/07 09:39:21;;;;;;;;;13.25;9.25;;;;;19.63;57.53;102241.38;5070491;28;49911;-65
2022/05/07 09:41:53;;;;;;;;;12.50;11.50;;;;;19.69;57.34;102222.78;5072185;28;49875;-65
2022/05/07 09:44:20;;;;;;;;;13.75;12.75;;;;;19.84;56.67;102226.41;5072015;28;49877;-65
2022/05/07 09:46:45;;;;;;;;;10.00;9.25;;;;;19.80;57.11;102235.28;5071921;28;49605;-64
2022/05/07 09:49:12;;;;;;;;;14.00;11.50;;;;;19.84;56.58;102221.06;5071955;28;49818;-66
2022/05/07 09:51:39;;;;;;;;;11.00;10.00;;;;;20.05;56.69;102214.97;5072110;28;49649;-63
2022/05/07 09:59:33;;;;;;;;;10.50;10.50;;;;;20.39;54.97;102202.66;5071781;28;49724;-72
2022/05/07 10:02:27;;;;;;;;;10.50;10.50;;;;;20.67;55.15;102196.56;5072111;28;49771;-69
2022/05/07 10:05:30;;;;;;;;;10.00;8.75;;;;;21.05;54.09;102225.97;5067685;28;49789;-70
2022/05/07 10:08:25;;;;;;;;;14.00;12.50;;;;;21.28;54.08;102225.09;5071657;27;49880;-72
2022/05/07 10:10:58;;;;;;;;;10.25;10.25;;;;;21.56;52.91;102202.81;5071552;28;49770;-73
2022/05/07 10:13:24;;;;;;;;;11.50;11.00;;;;;21.64;51.78;102193.00;5089361;27;49948;-76
2022/05/07 10:16:01;;;;;;;;;15.00;12.75;;;;;21.78;52.03;102200.97;5077136;27;51164;-70
2022/05/07 10:18:38;;;;;;;;;13.00;12.25;;;;;21.86;51.49;102190.28;5076382;27;49671;-73
2022/05/07 10:21:15;;;;;;;;;6.75;6.75;;;;;21.97;51.12;102180.41;5071504;27;49880;-72
2022/05/07 10:23:52;;;;;;;;;11.25;10.75;;;;;22.15;50.47;102223.19;5068432;27;49790;-71
2022/05/07 10:26:19;;;;;;;;;9.75;9.50;;;;;22.19;50.71;102216.00;5081186;27;49779;-69
2022/05/07 10:28:45;;;;;;;;;12.00;9.50;;;;;22.23;50.24;102218.69;5069907;28;49787;-70
2022/05/07 10:31:23;;;;;;;;;19.00;14.25;;;;;22.12;50.88;102216.97;5071010;28;49864;-69
2022/05/07 10:33:50;;;;;;;;;11.25;10.25;;;;;21.94;51.38;102207.19;5071561;28;49630;-70
2022/05/07 10:36:16;;;;;;;;;11.50;11.50;;;;;22.22;50.98;102219.59;5071061;28;50222;-68
2022/05/07 10:38:44;;;;;;;;;8.50;8.50;;;;;22.10;50.39;102182.22;5070853;28;49652;-77
2022/05/07 10:41:12;;;;;;;;;15.50;15.00;;;;;22.27;49.30;102219.56;5071077;28;49748;-74
2022/05/07 10:43:42;;;;;;;;;13.75;11.50;;;;;22.43;48.92;102223.06;5070536;28;49818;-66
2022/05/07 10:46:14;;;;;;;;;11.25;10.00;;;;;22.43;48.06;102223.94;5071057;28;49923;-65
2022/05/07 10:48:46;;;;;;;;;11.75;10.25;;;;;22.70;47.78;102214.88;5071196;28;49797;-67
2022/05/07 10:51:20;;;;;;;;;12.75;11.00;;;;;22.72;46.44;102185.41;5071194;28;49851;-64
2022/05/07 10:53:46;;;;;;;;;10.75;10.25;;;;;23.03;46.26;102211.09;5070849;28;49779;-77
2022/05/07 10:56:14;;;;;;;;;10.50;10.50;;;;;23.13;45.36;102198.50;5070516;28;50687;-65
2022/05/07 10:58:46;;;;;;;;;9.00;8.50;;;;;22.62;45.68;102098.06;5070689;28;49592;-66
2022/05/07 11:01:12;;;;;;;;;10.00;10.00;;;;;23.34;44.95;102179.56;5070556;27;49938;-66
2022/05/07 11:03:38;;;;;;;;;14.50;14.00;;;;;23.20;45.33;102169.88;5070987;28;49902;-66
2022/05/07 11:06:06;;;;;;;;;14.75;12.75;;;;;23.40;44.80;102195.59;5068792;28;52024;-72
2022/05/07 11:08:32;;;;;;;;;12.50;10.50;;;;;23.40;45.01;102192.03;5069252;28;50167;-67
2022/05/07 11:11:10;;;;;;;;;11.50;11.50;;;;;23.46;45.13;102183.94;5070757;28;49680;-72
2022/05/07 11:13:57;;;;;;;;;13.00;8.50;;;;;23.77;44.82;102192.56;5064364;28;49736;-70
2022/05/07 11:16:24;;;;;;;;;9.00;9.00;;;;;23.96;43.63;102191.44;5070478;28;50932;-66
2022/05/07 11:18:53;;;;;;;;;12.00;10.00;;;;;24.06;42.96;102168.06;5069041;28;49784;-71
2022/05/07 11:21:22;;;;;;;;;12.75;10.25;;;;;23.85;43.07;102165.66;5069246;28;50071;-69
2022/05/07 11:24:02;;;;;;;;;11.00;10.00;;;;;23.87;44.08;102159.38;5070411;28;49795;-70
2022/05/07 11:26:28;;;;;;;;;10.25;9.75;;;;;24.13;43.38;102179.63;5070488;27;49763;-68
2022/05/07 11:28:54;;;;;;;;;10.00;9.00;;;;;24.26;42.80;102189.28;5070502;28;49958;-68
2022/05/07 11:31:37;;;;;;;;;10.50;9.00;;;;;24.11;41.85;102165.31;5070442;27;49489;-69
2022/05/07 11:34:07;;;;;;;;;8.00;8.00;;;;;24.21;41.59;102192.00;5070524;27;49689;-70
2022/05/07 11:36:36;;;;;;;;;8.25;7.50;;;;;24.07;41.55;102174.31;5069022;28;51314;-72
2022/05/07 11:39:04;;;;;;;;;13.25;8.25;;;;;24.13;41.01;102179.63;5070380;28;49884;-75
2022/05/07 11:41:30;;;;;;;;;8.75;7.00;;;;;23.94;42.72;102181.66;5070553;28;49779;-70